Wetterdaten: Woche 16.03.15 - 22.03.15 (KW12)
Datum Zeit Temperatur Luftfeuchte Luftdruck Niederschlag Windrichtung Sonnenschein Solar Wind
16.03.2015 00:00 1,1 C 91 % 1019,9 hPa 0,0 l/m N-NO 0,00 h 0 W/m 4,0 km/h (1 Bft)
16.03.2015 01:00 1,1 C 93 % 1020,2 hPa 0,0 l/m N-NO 0,00 h 0 W/m 5,3 km/h (1 Bft)
16.03.2015 02:00 1,1 C 93 % 1019,9 hPa 0,0 l/m N-NO 0,00 h 0 W/m 3,6 km/h (1 Bft)
16.03.2015 03:00 0,9 C 93 % 1019,8 hPa 0,0 l/m N-NO 0,00 h 0 W/m 5,6 km/h (1 Bft)
16.03.2015 04:00 0,6 C 92 % 1020,0 hPa 0,0 l/m N-NO 0,00 h 0 W/m 5,7 km/h (1 Bft)
16.03.2015 05:00 0,3 C 92 % 1019,9 hPa 0,0 l/m N-NO 0,00 h 0 W/m 5,9 km/h (2 Bft)
16.03.2015 06:00 -0,0 C 92 % 1020,3 hPa 0,0 l/m N-NO 0,00 h 8 W/m 4,0 km/h (1 Bft)
16.03.2015 07:00 -0,2 C 93 % 1020,4 hPa 0,0 l/m N-NO 0,17 h 62 W/m 7,8 km/h (2 Bft)
16.03.2015 08:00 1,4 C 90 % 1020,7 hPa 0,0 l/m O-NO 1,00 h 225 W/m 7,5 km/h (2 Bft)
16.03.2015 09:00 4,2 C 80 % 1020,6 hPa 0,0 l/m NO 1,00 h 462 W/m 9,7 km/h (2 Bft)
16.03.2015 10:00 7,4 C 69 % 1020,5 hPa 0,0 l/m NO 0,75 h 521 W/m 6,3 km/h (2 Bft)
16.03.2015 11:00 10,4 C 60 % 1020,5 hPa 0,0 l/m NO 1,00 h 630 W/m 6,2 km/h (2 Bft)
16.03.2015 12:00 13,6 C 48 % 1020,1 hPa 0,0 l/m O-SO 1,00 h 659 W/m 8,1 km/h (2 Bft)
16.03.2015 13:00 15,7 C 39 % 1019,6 hPa 0,0 l/m NO 1,00 h 640 W/m 12,8 km/h (3 Bft)
16.03.2015 14:00 16,2 C 35 % 1019,5 hPa 0,0 l/m O-SO 0,75 h 448 W/m 14,6 km/h (3 Bft)
16.03.2015 15:00 15,6 C 36 % 1019,4 hPa 0,0 l/m NO 1,00 h 411 W/m 15,0 km/h (3 Bft)
16.03.2015 16:00 15,5 C 38 % 1019,5 hPa 0,0 l/m O-NO 1,00 h 298 W/m 14,2 km/h (3 Bft)
16.03.2015 17:00 14,3 C 43 % 1019,9 hPa 0,0 l/m O-NO 0,58 h 113 W/m 15,2 km/h (3 Bft)
16.03.2015 18:00 12,5 C 49 % 1020,5 hPa 0,0 l/m O 0,17 h 16 W/m 7,5 km/h (2 Bft)
16.03.2015 19:00 11,1 C 54 % 1020,7 hPa 0,0 l/m O 0,00 h 0 W/m 3,2 km/h (1 Bft)
16.03.2015 20:00 9,3 C 60 % 1020,9 hPa 0,0 l/m O 0,00 h 0 W/m 5,1 km/h (1 Bft)
16.03.2015 21:00 8,1 C 66 % 1021,0 hPa 0,0 l/m O-NO 0,00 h 0 W/m 6,8 km/h (2 Bft)
16.03.2015 22:00 7,0 C 70 % 1020,6 hPa 0,0 l/m NO 0,00 h 0 W/m 5,2 km/h (1 Bft)
16.03.2015 23:00 6,1 C 72 % 1020,6 hPa 0,0 l/m N 0,00 h 0 W/m 1,9 km/h (1 Bft)
17.03.2015 00:00 5,2 C 76 % 1020,8 hPa 0,0 l/m NO 0,00 h 0 W/m 3,1 km/h (1 Bft)
17.03.2015 01:00 4,5 C 80 % 1020,8 hPa 0,0 l/m NO 0,00 h 0 W/m 3,1 km/h (1 Bft)
17.03.2015 02:00 4,2 C 82 % 1020,6 hPa 0,0 l/m N 0,00 h 0 W/m 3,1 km/h (1 Bft)
17.03.2015 03:00 3,8 C 84 % 1020,6 hPa 0,0 l/m NO 0,00 h 0 W/m 4,3 km/h (1 Bft)
17.03.2015 04:00 3,5 C 86 % 1020,7 hPa 0,0 l/m NO 0,00 h 0 W/m 6,4 km/h (2 Bft)
17.03.2015 05:00 3,1 C 87 % 1020,7 hPa 0,0 l/m NO 0,00 h 0 W/m 3,6 km/h (1 Bft)
17.03.2015 06:00 2,6 C 88 % 1020,9 hPa 0,0 l/m N-NO 0,00 h 9 W/m 4,4 km/h (1 Bft)
17.03.2015 07:00 2,4 C 89 % 1021,2 hPa 0,0 l/m N-NO 0,00 h 47 W/m 5,3 km/h (1 Bft)
17.03.2015 08:00 2,9 C 90 % 1021,3 hPa 0,0 l/m N 0,00 h 78 W/m 8,2 km/h (2 Bft)
17.03.2015 09:00 4,5 C 88 % 1021,4 hPa 0,0 l/m N-NO 0,92 h 396 W/m 10,1 km/h (2 Bft)
17.03.2015 10:00 7,2 C 78 % 1021,4 hPa 0,0 l/m NO 0,92 h 487 W/m 6,4 km/h (2 Bft)
17.03.2015 11:00 9,9 C 67 % 1021,3 hPa 0,0 l/m O-NO 0,75 h 454 W/m 7,8 km/h (2 Bft)
17.03.2015 12:00 12,9 C 57 % 1021,0 hPa 0,0 l/m O-NO 0,92 h 502 W/m 7,2 km/h (2 Bft)
17.03.2015 13:00 14,8 C 46 % 1020,5 hPa 0,0 l/m O-NO 0,33 h 300 W/m 5,6 km/h (1 Bft)
17.03.2015 14:00 15,4 C 49 % 1020,0 hPa 0,0 l/m O-NO 0,08 h 211 W/m 7,6 km/h (2 Bft)
17.03.2015 15:00 15,3 C 52 % 1020,0 hPa 0,0 l/m O-NO 0,00 h 126 W/m 9,4 km/h (2 Bft)
17.03.2015 16:00 14,9 C 55 % 1020,1 hPa 0,0 l/m N-NO 0,00 h 93 W/m 7,0 km/h (2 Bft)
17.03.2015 17:00 14,5 C 57 % 1020,3 hPa 0,0 l/m N-NO 0,00 h 44 W/m 4,0 km/h (1 Bft)
17.03.2015 18:00 13,5 C 60 % 1020,6 hPa 0,0 l/m N 0,00 h 11 W/m 3,3 km/h (1 Bft)
17.03.2015 19:00 12,0 C 64 % 1020,8 hPa 0,0 l/m N-NO 0,00 h 0 W/m 5,2 km/h (1 Bft)
17.03.2015 20:00 11,0 C 66 % 1020,8 hPa 0,0 l/m N-NO 0,00 h 0 W/m 5,5 km/h (1 Bft)
17.03.2015 21:00 10,2 C 67 % 1021,0 hPa 0,0 l/m N 0,00 h 0 W/m 1,2 km/h (1 Bft)
17.03.2015 22:00 9,0 C 71 % 1021,1 hPa 0,0 l/m N 0,00 h 0 W/m 2,5 km/h (1 Bft)
17.03.2015 23:00 8,2 C 73 % 1021,1 hPa 0,0 l/m N 0,00 h 0 W/m 2,0 km/h (1 Bft)
18.03.2015 00:00 7,7 C 75 % 1021,3 hPa 0,0 l/m N 0,00 h 0 W/m 2,0 km/h (1 Bft)
18.03.2015 01:00 6,8 C 77 % 1021,4 hPa 0,0 l/m N 0,00 h 0 W/m 0,4 km/h (0 Bft)
18.03.2015 02:00 5,5 C 79 % 1021,4 hPa 0,0 l/m N 0,00 h 0 W/m 0,0 km/h (0 Bft)
18.03.2015 03:00 4,3 C 82 % 1021,4 hPa 0,0 l/m N 0,00 h 0 W/m 0,0 km/h (0 Bft)
18.03.2015 04:00 3,3 C 83 % 1021,6 hPa 0,0 l/m N 0,00 h 0 W/m 0,0 km/h (0 Bft)
18.03.2015 05:00 2,5 C 85 % 1021,8 hPa 0,0 l/m N 0,00 h 0 W/m 0,0 km/h (0 Bft)
18.03.2015 06:00 1,9 C 87 % 1022,2 hPa 0,0 l/m N 0,08 h 15 W/m 0,0 km/h (0 Bft)
18.03.2015 07:00 1,9 C 91 % 1022,4 hPa 0,0 l/m N 0,50 h 94 W/m 0,0 km/h (0 Bft)
18.03.2015 08:00 4,0 C 95 % 1022,5 hPa 0,0 l/m N 0,83 h 218 W/m 0,0 km/h (0 Bft)
18.03.2015 09:00 6,6 C 91 % 1022,5 hPa 0,0 l/m N 0,50 h 295 W/m 0,4 km/h (0 Bft)
18.03.2015 10:00 9,2 C 81 % 1022,4 hPa 0,0 l/m N-NO 0,92 h 460 W/m 2,8 km/h (1 Bft)
18.03.2015 11:00 12,1 C 68 % 1022,1 hPa 0,0 l/m O 1,00 h 563 W/m 6,7 km/h (2 Bft)
18.03.2015 12:00 15,0 C 54 % 1021,6 hPa 0,0 l/m SO 1,00 h 606 W/m 5,9 km/h (2 Bft)
18.03.2015 13:00 16,9 C 47 % 1020,9 hPa 0,0 l/m S-SO 1,00 h 565 W/m 7,1 km/h (2 Bft)
18.03.2015 14:00 18,0 C 45 % 1020,4 hPa 0,0 l/m SW 1,00 h 514 W/m 8,0 km/h (2 Bft)
18.03.2015 15:00 18,0 C 44 % 1020,1 hPa 0,0 l/m SW 0,75 h 301 W/m 8,6 km/h (2 Bft)
18.03.2015 16:00 17,3 C 46 % 1020,1 hPa 0,0 l/m SW 0,50 h 170 W/m 4,1 km/h (1 Bft)
18.03.2015 17:00 16,7 C 46 % 1020,2 hPa 0,0 l/m N-NO 0,00 h 51 W/m 4,4 km/h (1 Bft)
18.03.2015 18:00 15,0 C 49 % 1020,6 hPa 0,0 l/m N-NO 0,08 h 13 W/m 7,2 km/h (2 Bft)
18.03.2015 19:00 12,7 C 57 % 1021,0 hPa 0,0 l/m N 0,00 h 0 W/m 4,8 km/h (1 Bft)
18.03.2015 20:00 10,7 C 64 % 1021,3 hPa 0,0 l/m N 0,00 h 0 W/m 6,3 km/h (2 Bft)
18.03.2015 21:00 9,3 C 67 % 1021,4 hPa 0,0 l/m N 0,00 h 0 W/m 2,9 km/h (1 Bft)
18.03.2015 22:00 8,0 C 73 % 1021,4 hPa 0,0 l/m N 0,00 h 0 W/m 3,9 km/h (1 Bft)
18.03.2015 23:00 7,2 C 76 % 1021,3 hPa 0,0 l/m N 0,00 h 0 W/m 4,3 km/h (1 Bft)
19.03.2015 00:00 6,5 C 78 % 1021,2 hPa 0,0 l/m N 0,00 h 0 W/m 2,1 km/h (1 Bft)
19.03.2015 01:00 5,7 C 80 % 1020,9 hPa 0,0 l/m N 0,00 h 0 W/m 4,1 km/h (1 Bft)
19.03.2015 02:00 4,9 C 81 % 1020,6 hPa 0,0 l/m N 0,00 h 0 W/m 0,3 km/h (0 Bft)
19.03.2015 03:00 3,9 C 83 % 1020,8 hPa 0,0 l/m N 0,00 h 0 W/m 2,5 km/h (1 Bft)
19.03.2015 04:00 3,7 C 86 % 1020,7 hPa 0,0 l/m N 0,00 h 0 W/m 1,7 km/h (1 Bft)
19.03.2015 05:00 2,8 C 85 % 1020,9 hPa 0,0 l/m N 0,00 h 0 W/m 0,4 km/h (0 Bft)
19.03.2015 06:00 1,9 C 88 % 1021,3 hPa 0,0 l/m N 0,00 h 12 W/m 0,7 km/h (0 Bft)
19.03.2015 07:00 2,0 C 90 % 1021,9 hPa 0,0 l/m N 0,08 h 73 W/m 1,2 km/h (1 Bft)
19.03.2015 08:00 4,2 C 89 % 1022,3 hPa 0,0 l/m N 1,00 h 236 W/m 4,5 km/h (1 Bft)
19.03.2015 09:00 7,4 C 76 % 1022,5 hPa 0,0 l/m NO 1,00 h 398 W/m 5,7 km/h (1 Bft)
19.03.2015 10:00 10,2 C 63 % 1022,6 hPa 0,0 l/m O-NO 1,00 h 521 W/m 8,4 km/h (2 Bft)
19.03.2015 11:00 12,3 C 51 % 1022,4 hPa 0,0 l/m NO 1,00 h 619 W/m 14,0 km/h (3 Bft)
19.03.2015 12:00 13,7 C 44 % 1022,0 hPa 0,0 l/m NO 1,00 h 660 W/m 14,2 km/h (3 Bft)
19.03.2015 13:00 14,8 C 41 % 1021,5 hPa 0,0 l/m NO 1,00 h 647 W/m 15,4 km/h (3 Bft)
19.03.2015 14:00 15,7 C 35 % 1021,1 hPa 0,0 l/m O-NO 1,00 h 589 W/m 13,8 km/h (3 Bft)
19.03.2015 15:00 16,0 C 33 % 1020,9 hPa 0,0 l/m O-NO 1,00 h 464 W/m 13,3 km/h (3 Bft)
19.03.2015 16:00 15,3 C 33 % 1020,6 hPa 0,0 l/m O-NO 1,00 h 314 W/m 14,8 km/h (3 Bft)
19.03.2015 17:00 14,2 C 35 % 1020,6 hPa 0,0 l/m O 0,75 h 115 W/m 12,9 km/h (3 Bft)
19.03.2015 18:00 12,2 C 44 % 1021,1 hPa 0,0 l/m O-NO 0,00 h 11 W/m 5,6 km/h (1 Bft)
19.03.2015 19:00 10,0 C 51 % 1021,7 hPa 0,0 l/m O-NO 0,00 h 0 W/m 3,7 km/h (1 Bft)
19.03.2015 20:00 7,9 C 57 % 1022,1 hPa 0,0 l/m O-NO 0,00 h 0 W/m 6,0 km/h (2 Bft)
19.03.2015 21:00 6,8 C 61 % 1022,2 hPa 0,0 l/m N 0,00 h 0 W/m 4,5 km/h (1 Bft)
19.03.2015 22:00 6,1 C 64 % 1022,2 hPa 0,0 l/m N 0,00 h 0 W/m 2,1 km/h (1 Bft)
19.03.2015 23:00 5,2 C 68 % 1022,1 hPa 0,0 l/m N 0,00 h 0 W/m 2,5 km/h (1 Bft)
20.03.2015 00:00 4,3 C 72 % 1022,1 hPa 0,0 l/m O-NO 0,00 h 0 W/m 2,3 km/h (1 Bft)
20.03.2015 01:00 3,5 C 76 % 1022,1 hPa 0,0 l/m O-NO 0,00 h 0 W/m 5,5 km/h (1 Bft)
20.03.2015 02:00 3,1 C 77 % 1021,7 hPa 0,0 l/m O-NO 0,00 h 0 W/m 4,5 km/h (1 Bft)
20.03.2015 03:00 2,4 C 77 % 1021,4 hPa 0,0 l/m O-NO 0,00 h 0 W/m 1,7 km/h (1 Bft)
20.03.2015 04:00 1,7 C 80 % 1021,6 hPa 0,0 l/m O-NO 0,00 h 0 W/m 5,3 km/h (1 Bft)
20.03.2015 05:00 1,5 C 81 % 1021,7 hPa 0,0 l/m O-NO 0,00 h 0 W/m 4,1 km/h (1 Bft)
20.03.2015 06:00 1,2 C 82 % 1021,9 hPa 0,0 l/m O-NO 0,00 h 13 W/m 3,7 km/h (1 Bft)
20.03.2015 07:00 1,3 C 83 % 1021,9 hPa 0,0 l/m O-NO 0,17 h 78 W/m 4,8 km/h (1 Bft)
20.03.2015 08:00 3,5 C 78 % 1021,9 hPa 0,0 l/m N-NO 1,00 h 247 W/m 6,8 km/h (2 Bft)
20.03.2015 09:00 6,3 C 69 % 1022,0 hPa 0,0 l/m O-NO 1,00 h 385 W/m 10,3 km/h (2 Bft)
20.03.2015 10:00 8,3 C 60 % 1021,6 hPa 0,0 l/m NO 0,08 h 206 W/m 10,6 km/h (2 Bft)
20.03.2015 11:00 9,0 C 57 % 1021,5 hPa 0,0 l/m NO 0,83 h 544 W/m 11,1 km/h (2 Bft)
20.03.2015 12:00 11,8 C 46 % 1020,8 hPa 0,0 l/m O 1,00 h 680 W/m 18,0 km/h (3 Bft)
20.03.2015 13:00 13,2 C 37 % 1019,9 hPa 0,0 l/m O-NO 1,00 h 668 W/m 16,6 km/h (3 Bft)
20.03.2015 14:00 14,2 C 36 % 1019,3 hPa 0,0 l/m O-SO 1,00 h 591 W/m 14,5 km/h (3 Bft)
20.03.2015 15:00 14,3 C 34 % 1018,8 hPa 0,0 l/m O-SO 1,00 h 481 W/m 14,6 km/h (3 Bft)
20.03.2015 16:00 14,1 C 33 % 1017,9 hPa 0,0 l/m O-SO 1,00 h 329 W/m 12,5 km/h (3 Bft)
20.03.2015 17:00 13,2 C 33 % 1017,6 hPa 0,0 l/m O-SO 0,83 h 130 W/m 9,4 km/h (2 Bft)
20.03.2015 18:00 11,4 C 40 % 1017,8 hPa 0,0 l/m N 0,00 h 12 W/m 1,5 km/h (1 Bft)
20.03.2015 19:00 9,2 C 47 % 1018,1 hPa 0,0 l/m N 0,00 h 0 W/m 1,5 km/h (1 Bft)
20.03.2015 20:00 7,1 C 55 % 1018,3 hPa 0,0 l/m N 0,00 h 0 W/m 1,1 km/h (0 Bft)
20.03.2015 21:00 5,6 C 60 % 1018,3 hPa 0,0 l/m N 0,00 h 0 W/m 0,9 km/h (0 Bft)
20.03.2015 22:00 4,5 C 64 % 1017,9 hPa 0,0 l/m N 0,00 h 0 W/m 0,3 km/h (0 Bft)
20.03.2015 23:00 3,4 C 68 % 1017,3 hPa 0,0 l/m N 0,00 h 0 W/m 0,0 km/h (0 Bft)
21.03.2015 00:00 2,4 C 71 % 1016,9 hPa 0,0 l/m N 0,00 h 0 W/m 0,0 km/h (0 Bft)
21.03.2015 01:00 1,5 C 74 % 1016,8 hPa 0,0 l/m N 0,00 h 0 W/m 0,0 km/h (0 Bft)
21.03.2015 02:00 0,6 C 77 % 1016,4 hPa 0,0 l/m N 0,00 h 0 W/m 0,0 km/h (0 Bft)
21.03.2015 03:00 -0,0 C 81 % 1015,9 hPa 0,0 l/m N 0,00 h 0 W/m 0,0 km/h (0 Bft)
21.03.2015 04:00 -0,6 C 83 % 1015,7 hPa 0,0 l/m N 0,00 h 0 W/m 0,0 km/h (0 Bft)
21.03.2015 05:00 -0,9 C 86 % 1015,6 hPa 0,0 l/m N 0,00 h 0 W/m 0,0 km/h (0 Bft)
21.03.2015 06:00 -0,7 C 88 % 1015,6 hPa 0,0 l/m N 0,00 h 7 W/m 0,0 km/h (0 Bft)
21.03.2015 07:00 -0,1 C 89 % 1015,9 hPa 0,0 l/m N 0,00 h 48 W/m 0,1 km/h (0 Bft)
21.03.2015 08:00 3,5 C 82 % 1015,9 hPa 0,0 l/m O 0,50 h 196 W/m 3,2 km/h (1 Bft)
21.03.2015 09:00 6,1 C 78 % 1015,6 hPa 0,0 l/m S-SW 0,00 h 141 W/m 8,6 km/h (2 Bft)
21.03.2015 10:00 7,5 C 73 % 1015,0 hPa 0,0 l/m S 0,42 h 339 W/m 12,6 km/h (3 Bft)
21.03.2015 11:00 10,9 C 64 % 1014,1 hPa 0,0 l/m S-SW 1,00 h 631 W/m 15,0 km/h (3 Bft)
21.03.2015 12:00 13,0 C 54 % 1013,4 hPa 0,0 l/m W 0,67 h 466 W/m 16,5 km/h (3 Bft)
21.03.2015 13:00 12,8 C 50 % 1012,7 hPa 0,0 l/m SW 0,17 h 336 W/m 22,5 km/h (4 Bft)
21.03.2015 14:00 12,5 C 52 % 1012,3 hPa 0,0 l/m W-SW 0,00 h 196 W/m 20,2 km/h (4 Bft)
21.03.2015 15:00 11,6 C 55 % 1012,0 hPa 0,0 l/m W 0,00 h 81 W/m 20,5 km/h (4 Bft)
21.03.2015 16:00 10,1 C 63 % 1012,5 hPa 0,0 l/m W 0,00 h 31 W/m 8,7 km/h (2 Bft)
21.03.2015 17:00 8,6 C 69 % 1012,8 hPa 0,0 l/m N-NW 0,00 h 16 W/m 11,4 km/h (2 Bft)
21.03.2015 18:00 6,9 C 84 % 1013,5 hPa 0,6 l/m NW 0,00 h 5 W/m 8,5 km/h (2 Bft)
21.03.2015 19:00 5,9 C 90 % 1014,1 hPa 0,2 l/m N 0,00 h 0 W/m 0,8 km/h (0 Bft)
21.03.2015 20:00 5,4 C 90 % 1014,8 hPa 0,8 l/m N-NO 0,00 h 0 W/m 7,1 km/h (2 Bft)
21.03.2015 21:00 4,4 C 91 % 1015,4 hPa 1,4 l/m N-NO 0,00 h 0 W/m 7,9 km/h (2 Bft)
21.03.2015 22:00 3,8 C 91 % 1015,5 hPa 0,6 l/m N 0,00 h 0 W/m 7,2 km/h (2 Bft)
21.03.2015 23:00 3,4 C 92 % 1015,6 hPa 0,2 l/m N-NO 0,00 h 0 W/m 8,3 km/h (2 Bft)
22.03.2015 00:00 3,1 C 92 % 1015,9 hPa 0,0 l/m NO 0,00 h 0 W/m 7,2 km/h (2 Bft)
22.03.2015 01:00 2,8 C 91 % 1016,4 hPa 0,0 l/m N-NO 0,00 h 0 W/m 7,8 km/h (2 Bft)
22.03.2015 02:00 2,5 C 89 % 1016,5 hPa 0,0 l/m NO 0,00 h 0 W/m 9,9 km/h (2 Bft)
22.03.2015 03:00 2,3 C 90 % 1016,3 hPa 0,0 l/m N-NO 0,00 h 0 W/m 7,8 km/h (2 Bft)
22.03.2015 04:00 2,2 C 90 % 1016,4 hPa 0,0 l/m N-NO 0,00 h 0 W/m 6,9 km/h (2 Bft)
22.03.2015 05:00 1,9 C 91 % 1016,4 hPa 0,0 l/m N-NO 0,00 h 0 W/m 9,9 km/h (2 Bft)
22.03.2015 06:00 1,8 C 92 % 1016,6 hPa 0,0 l/m NO 0,00 h 7 W/m 12,4 km/h (3 Bft)
22.03.2015 07:00 1,7 C 92 % 1016,9 hPa 0,0 l/m NO 0,00 h 29 W/m 15,4 km/h (3 Bft)
22.03.2015 08:00 2,3 C 91 % 1017,2 hPa 0,0 l/m NO 0,00 h 74 W/m 16,5 km/h (3 Bft)
22.03.2015 09:00 2,7 C 91 % 1017,4 hPa 0,0 l/m O-NO 0,00 h 67 W/m 19,6 km/h (3 Bft)
22.03.2015 10:00 3,1 C 90 % 1017,6 hPa 0,0 l/m O-NO 0,00 h 74 W/m 22,9 km/h (4 Bft)
22.03.2015 11:00 3,7 C 90 % 1017,3 hPa 0,0 l/m O-NO 0,00 h 84 W/m 21,2 km/h (4 Bft)
22.03.2015 12:00 3,8 C 90 % 1016,9 hPa 0,0 l/m O-NO 0,00 h 47 W/m 21,6 km/h (4 Bft)
22.03.2015 13:00 4,0 C 92 % 1016,6 hPa 0,0 l/m O-NO 0,00 h 54 W/m 19,2 km/h (3 Bft)
22.03.2015 14:00 4,4 C 90 % 1016,7 hPa 0,2 l/m O-NO 0,00 h 33 W/m 22,9 km/h (4 Bft)
22.03.2015 15:00 4,6 C 90 % 1017,0 hPa 0,0 l/m O 0,00 h 44 W/m 24,4 km/h (4 Bft)
22.03.2015 16:00 4,8 C 87 % 1017,2 hPa 0,0 l/m O 0,00 h 24 W/m 22,9 km/h (4 Bft)
22.03.2015 17:00 4,7 C 86 % 1017,3 hPa 0,0 l/m O-SO 0,00 h 13 W/m 22,6 km/h (4 Bft)
22.03.2015 18:00 4,6 C 87 % 1017,6 hPa 0,0 l/m O-NO 0,00 h 6 W/m 16,5 km/h (3 Bft)
22.03.2015 19:00 4,4 C 88 % 1018,2 hPa 0,0 l/m O-NO 0,00 h 0 W/m 15,4 km/h (3 Bft)
22.03.2015 20:00 4,4 C 88 % 1018,6 hPa 0,0 l/m O-NO 0,00 h 0 W/m 14,9 km/h (3 Bft)
22.03.2015 21:00 4,4 C 88 % 1018,8 hPa 0,0 l/m O-NO 0,00 h 0 W/m 12,9 km/h (3 Bft)
22.03.2015 22:00 4,3 C 89 % 1018,5 hPa 0,0 l/m O-NO 0,00 h 0 W/m 7,6 km/h (2 Bft)
22.03.2015 23:00 4,3 C 90 % 1018,4 hPa 0,0 l/m NO 0,00 h 0 W/m 7,9 km/h (2 Bft)
Min-Datum _ 21.03.15 19.03.15 21.03.15 - - - - 16.03.15
_ Min-Zeit 05:30 14:40 15:00 - - - - 00:45
Minimum _ -1,0 C 31 % 1011,9 hPa - - - - 0,0 km/h (0 Bft)
Max-Datum _ 18.03.15 18.03.15 18.03.15 21.03.15 - 16.03.15 20.03.15 22.03.15
_ Max-Zeit 15:05 08:20 06:45 21:00 - 07:50 12:45 15:20
Maximum _ 18,3 C 95 % 1022,6 hPa 1,4 l/m - 0,08 h 687 W/m 30,6 km/h
O (5 Bft)
Durchschnitt _ 7,1 C 71 % 1019,4 hPa #4,0 l/m O-NO #43:00 h 255 W/m 7,4 km/h (2 Bft)